Time;durP1;ratioP1;P1;durP2;ratioP2;P2;SDS_P1;SDS_P2;PMS_P1;PMS_P2;Temp;Humidity;BMP_temperature;BMP_pressure;BME280_temperature;BME280_humidity;BME280_pressure;Samples;Min_cycle;Max_cycle;Signal;HPM_P1;HPM_P2
2023/05/04 00:02:46;;;;;;;;;;;;;;;17.43;64.54;101367.28;5000641;28;19925;-83
2023/05/04 00:05:38;;;;;;;;;;;;;;;17.34;64.80;101361.94;4998800;28;19918;-84
2023/05/04 00:08:30;;;;;;;;;;;;;;;17.37;64.91;101363.22;5000863;28;19917;-81
2023/05/04 00:11:22;;;;;;;;;;;;;;;17.37;64.43;101354.97;4994274;28;19917;-80
2023/05/04 00:14:14;;;;;;;;;;;;;;;17.37;64.37;101358.47;4997413;28;19917;-80
2023/05/04 00:17:05;;;;;;;;;;;;;;;17.29;64.40;101361.34;4995408;28;19917;-81
2023/05/04 00:19:57;;;;;;;;;;;;;;;17.28;65.09;101357.00;4999050;28;19926;-81
2023/05/04 00:22:49;;;;;;;;;;;;;;;17.20;65.15;101357.94;4997217;28;19918;-80
2023/05/04 00:25:40;;;;;;;;;;;;;;;17.12;65.56;101356.88;4994494;28;19917;-80
2023/05/04 00:28:32;;;;;;;;;;;;;;;17.14;65.43;101360.09;4998308;28;19918;-81
2023/05/04 00:31:22;;;;;;;;;;;;;;;17.08;65.83;101356.78;4995822;28;19918;-81
2023/05/04 00:34:14;;;;;;;;;;;;;;;16.98;65.70;101346.25;5007036;28;19918;-81
2023/05/04 00:37:06;;;;;;;;;;;;;;;16.63;67.08;101351.34;4997552;28;19918;-81
2023/05/04 00:39:58;;;;;;;;;;;;;;;16.70;67.81;101350.00;4993472;28;19922;-81
2023/05/04 00:42:50;;;;;;;;;;;;;;;16.80;66.76;101344.06;4999934;28;19918;-81
2023/05/04 00:45:42;;;;;;;;;;;;;;;16.86;65.96;101345.44;4996152;28;19918;-80
2023/05/04 00:48:34;;;;;;;;;;;;;;;16.95;66.32;101344.19;4995353;28;19917;-82
2023/05/04 00:51:26;;;;;;;;;;;;;;;16.91;65.95;101343.28;4997280;28;19918;-81
2023/05/04 00:54:21;;;;;;;;;;;;;;;16.84;65.36;101339.47;4995540;28;19918;-81
2023/05/04 00:57:13;;;;;;;;;;;;;;;16.88;65.66;101346.69;5012918;28;19922;-81
2023/05/04 01:00:05;;;;;;;;;;;;;;;16.82;65.67;101345.31;4994082;28;19922;-82
2023/05/04 01:02:57;;;;;;;;;;;;;;;16.66;66.41;101344.38;4999127;28;19918;-81
2023/05/04 01:06:05;;;;;;;;;;;;;;;16.74;66.28;101345.41;5002117;28;19922;-82
2023/05/04 01:09:06;;;;;;;;;;;;;;;16.70;66.30;101347.25;5003362;28;19918;-82
2023/05/04 01:11:59;;;;;;;;;;;;;;;16.71;66.21;101344.16;4997322;28;19918;-82
2023/05/04 01:14:52;;;;;;;;;;;;;;;16.74;66.41;101337.19;4999815;28;20300;-81
2023/05/04 01:17:42;;;;;;;;;;;;;;;16.73;65.26;101336.38;4997772;28;19922;-82
2023/05/04 01:20:31;;;;;;;;;;;;;;;16.75;65.70;101331.34;5002350;28;19922;-82
2023/05/04 01:23:22;;;;;;;;;;;;;;;16.73;65.60;101336.38;5000015;28;19918;-80
2023/05/04 01:26:29;;;;;;;;;;;;;;;16.78;65.40;101336.16;4997219;28;19917;-81
2023/05/04 01:29:25;;;;;;;;;;;;;;;16.77;65.33;101331.81;4999443;28;19918;-81
2023/05/04 01:32:18;;;;;;;;;;;;;;;16.65;65.21;101332.59;4996929;28;19917;-81
2023/05/04 01:35:12;;;;;;;;;;;;;;;16.63;64.10;101332.13;5014536;28;19918;-82
2023/05/04 01:38:04;;;;;;;;;;;;;;;16.56;64.94;101333.78;5002513;28;19917;-81
2023/05/04 01:40:56;;;;;;;;;;;;;;;16.66;64.29;101330.63;4996633;28;20297;-81
2023/05/04 01:43:46;;;;;;;;;;;;;;;16.66;64.00;101328.69;5013261;28;19918;-81
2023/05/04 01:46:38;;;;;;;;;;;;;;;16.64;64.50;101328.25;4998584;28;19918;-81
2023/05/04 01:49:30;;;;;;;;;;;;;;;16.56;64.62;101328.28;5002016;28;20297;-82
2023/05/04 01:52:22;;;;;;;;;;;;;;;16.50;64.87;101329.69;4996661;28;19918;-83
2023/05/04 01:55:13;;;;;;;;;;;;;;;16.40;64.96;101327.38;5002896;28;20123;-83
2023/05/04 01:58:05;;;;;;;;;;;;;;;16.33;65.79;101324.38;5016358;28;19918;-82
2023/05/04 02:00:57;;;;;;;;;;;;;;;16.26;66.04;101333.94;5000367;28;19922;-83
2023/05/04 02:03:50;;;;;;;;;;;;;;;16.27;66.02;101327.31;5015957;28;19917;-82
2023/05/04 02:06:39;;;;;;;;;;;;;;;16.23;66.19;101331.91;5021373;28;20464;-81
2023/05/04 02:09:31;;;;;;;;;;;;;;;16.26;66.02;101324.91;5027103;28;19917;-81
2023/05/04 02:12:24;;;;;;;;;;;;;;;16.07;66.26;101303.47;5011989;28;19921;-82
2023/05/04 02:15:16;;;;;;;;;;;;;;;16.19;66.47;101330.97;5005011;28;19918;-82
2023/05/04 02:18:09;;;;;;;;;;;;;;;16.17;66.53;101322.25;5003594;28;19918;-82
2023/05/04 02:20:58;;;;;;;;;;;;;;;16.22;66.49;101330.28;5014604;28;20393;-82
2023/05/04 02:23:48;;;;;;;;;;;;;;;16.22;66.39;101335.78;4999416;28;19917;-82
2023/05/04 02:26:37;;;;;;;;;;;;;;;16.16;66.26;101328.06;5002481;28;19918;-83
2023/05/04 02:29:29;;;;;;;;;;;;;;;16.19;66.51;101330.16;5001639;28;20004;-84
2023/05/04 02:32:21;;;;;;;;;;;;;;;16.24;66.28;101336.25;5013081;28;19918;-83
2023/05/04 02:35:13;;;;;;;;;;;;;;;15.98;67.51;101324.72;5015128;28;20296;-81
2023/05/04 02:38:05;;;;;;;;;;;;;;;16.17;67.21;101333.25;5018414;28;19917;-80
2023/05/04 02:40:57;;;;;;;;;;;;;;;16.27;66.53;101332.81;5015140;28;19922;-81
2023/05/04 02:43:49;;;;;;;;;;;;;;;16.35;66.15;101327.59;5013372;28;19917;-81
2023/05/04 02:46:40;;;;;;;;;;;;;;;16.32;66.02;101331.78;5025336;28;20469;-81
2023/05/04 02:49:30;;;;;;;;;;;;;;;16.36;65.53;101329.97;5019344;28;19917;-86
2023/05/04 02:52:22;;;;;;;;;;;;;;;16.37;65.30;101339.00;5014986;28;19917;-83
2023/05/04 02:55:14;;;;;;;;;;;;;;;16.31;65.50;101332.94;5019248;28;19921;-78
2023/05/04 02:58:03;;;;;;;;;;;;;;;16.20;65.96;101327.06;5021813;28;19918;-78
2023/05/04 03:00:58;;;;;;;;;;;;;;;16.20;66.06;101335.28;5017271;28;19922;-81
2023/05/04 03:03:50;;;;;;;;;;;;;;;16.19;65.72;101330.16;5017232;28;19918;-79
2023/05/04 03:06:42;;;;;;;;;;;;;;;16.21;66.50;101331.41;5021227;28;19918;-81
2023/05/04 03:09:31;;;;;;;;;;;;;;;16.18;66.68;101334.03;5006886;28;19917;-79
2023/05/04 03:12:23;;;;;;;;;;;;;;;16.23;66.75;101336.56;5012972;28;20424;-79
2023/05/04 03:15:13;;;;;;;;;;;;;;;16.19;66.91;101333.72;5019082;28;19917;-82
2023/05/04 03:18:04;;;;;;;;;;;;;;;16.20;66.82;101332.56;5018725;28;19918;-79
2023/05/04 03:20:54;;;;;;;;;;;;;;;16.23;67.06;101336.56;4994704;28;19921;-78
2023/05/04 03:23:44;;;;;;;;;;;;;;;16.19;67.24;101339.19;4996567;28;19917;-78
2023/05/04 03:26:36;;;;;;;;;;;;;;;16.23;67.24;101334.63;4995672;28;19917;-79
2023/05/04 03:29:28;;;;;;;;;;;;;;;16.17;67.15;101341.47;4994263;28;20281;-79
2023/05/04 03:32:20;;;;;;;;;;;;;;;16.22;66.92;101338.50;5022083;28;19917;-79
2023/05/04 03:35:12;;;;;;;;;;;;;;;16.21;66.69;101344.34;5014927;28;19918;-79
2023/05/04 03:38:05;;;;;;;;;;;;;;;16.22;66.80;101338.50;4997893;28;19918;-78
2023/05/04 03:40:57;;;;;;;;;;;;;;;16.18;66.43;101337.59;4996850;28;19922;-78
2023/05/04 03:43:49;;;;;;;;;;;;;;;16.08;66.46;101339.94;4993696;28;20292;-79
2023/05/04 03:46:41;;;;;;;;;;;;;;;16.19;66.32;101341.94;5026394;28;19918;-77
2023/05/04 03:49:31;;;;;;;;;;;;;;;16.25;66.12;101339.78;5005477;28;19917;-79
2023/05/04 03:52:21;;;;;;;;;;;;;;;16.21;66.22;101334.16;5005074;28;19921;-77
2023/05/04 03:55:10;;;;;;;;;;;;;;;16.25;66.06;101337.81;5013791;28;20288;-77
2023/05/04 03:58:02;;;;;;;;;;;;;;;16.29;66.17;101335.22;5020617;28;19917;-78
2023/05/04 04:00:52;;;;;;;;;;;;;;;16.15;66.49;101330.03;5016460;28;19921;-77
2023/05/04 04:03:43;;;;;;;;;;;;;;;16.20;65.75;101329.81;5009287;28;19917;-78
2023/05/04 04:06:35;;;;;;;;;;;;;;;16.24;65.78;101332.69;5006562;28;19917;-78
2023/05/04 04:09:27;;;;;;;;;;;;;;;16.20;65.84;101335.28;5016120;28;19929;-79
2023/05/04 04:12:19;;;;;;;;;;;;;;;16.16;65.85;101330.81;5076941;22;19929;-77
2023/05/04 04:15:11;;;;;;;;;;;;;;;16.10;65.32;101332.97;5022122;28;19921;-77
2023/05/04 04:18:03;;;;;;;;;;;;;;;16.17;65.64;101340.66;5033855;28;20380;-76
2023/05/04 04:20:55;;;;;;;;;;;;;;;16.16;64.83;101345.34;5034239;28;20392;-77
2023/05/04 04:23:47;;;;;;;;;;;;;;;16.14;65.61;101341.34;5037490;28;19917;-77
2023/05/04 04:26:39;;;;;;;;;;;;;;;16.08;65.28;101335.25;5034230;28;19918;-77
2023/05/04 04:29:28;;;;;;;;;;;;;;;16.16;65.46;101342.59;5013649;28;20292;-77
2023/05/04 04:32:20;;;;;;;;;;;;;;;16.15;65.44;101345.69;5014762;28;19925;-77
2023/05/04 04:35:12;;;;;;;;;;;;;;;16.26;65.52;101344.13;5006254;28;19918;-77
2023/05/04 04:38:04;;;;;;;;;;;;;;;16.22;65.36;101340.47;5010489;28;19918;-77
2023/05/04 04:40:56;;;;;;;;;;;;;;;16.17;65.59;101349.69;5010448;28;19921;-77
2023/05/04 04:43:47;;;;;;;;;;;;;;;16.08;65.18;101345.44;5013268;28;19917;-77
2023/05/04 04:46:39;;;;;;;;;;;;;;;16.11;66.02;101337.31;5014735;28;19918;-77
2023/05/04 04:49:31;;;;;;;;;;;;;;;16.09;65.94;101345.09;5013811;28;19917;-77
2023/05/04 04:52:23;;;;;;;;;;;;;;;16.00;66.08;101351.81;5013124;28;19917;-77
2023/05/04 04:55:15;;;;;;;;;;;;;;;16.13;65.93;101354.25;5011159;28;19949;-77
2023/05/04 04:58:08;;;;;;;;;;;;;;;16.11;66.46;101358.47;5013896;28;19917;-77
2023/05/04 05:01:00;;;;;;;;;;;;;;;16.13;66.17;101354.25;5005621;28;20384;-77
2023/05/04 05:03:52;;;;;;;;;;;;;;;16.20;65.87;101354.50;5003523;28;20284;-77
2023/05/04 05:06:43;;;;;;;;;;;;;;;16.22;65.88;101356.91;5009340;28;19922;-77
2023/05/04 05:09:35;;;;;;;;;;;;;;;16.25;66.19;101357.03;5016467;28;19917;-76
2023/05/04 05:12:25;;;;;;;;;;;;;;;16.33;66.00;101360.03;5009690;28;19922;-77
2023/05/04 05:15:17;;;;;;;;;;;;;;;16.37;65.25;101358.22;5011044;28;19917;-78
2023/05/04 05:18:06;;;;;;;;;;;;;;;16.40;65.11;101358.38;5012567;28;19925;-77
2023/05/04 05:20:58;;;;;;;;;;;;;;;16.39;65.39;101364.19;5011941;28;19921;-77
2023/05/04 05:23:50;;;;;;;;;;;;;;;16.42;65.57;101360.75;5009175;28;20300;-76
2023/05/04 05:26:42;;;;;;;;;;;;;;;16.63;65.43;101367.03;5015616;28;19917;-75
2023/05/04 05:29:34;;;;;;;;;;;;;;;16.54;66.05;101369.03;5009565;28;19918;-76
2023/05/04 05:32:26;;;;;;;;;;;;;;;16.69;66.07;101365.69;5004583;28;19921;-76
2023/05/04 05:35:18;;;;;;;;;;;;;;;16.94;65.11;101369.25;5013379;28;19918;-76
2023/05/04 05:38:10;;;;;;;;;;;;;;;17.04;64.67;101369.63;5009251;28;20308;-76
2023/05/04 05:41:01;;;;;;;;;;;;;;;17.14;63.54;101364.78;5010183;28;19921;-76
2023/05/04 05:43:53;;;;;;;;;;;;;;;17.13;63.13;101368.69;5009290;28;19918;-76
2023/05/04 05:46:43;;;;;;;;;;;;;;;17.36;63.51;101362.41;5001014;28;20300;-76
2023/05/04 05:49:35;;;;;;;;;;;;;;;17.46;62.71;101370.19;5014655;28;19917;-76
2023/05/04 05:52:27;;;;;;;;;;;;;;;17.49;63.00;101369.47;5011395;28;19921;-77
2023/05/04 05:55:19;;;;;;;;;;;;;;;17.63;62.75;101371.88;5015257;28;19921;-77
2023/05/04 05:58:11;;;;;;;;;;;;;;;17.73;62.58;101371.41;5017527;28;19917;-77
2023/05/04 06:01:00;;;;;;;;;;;;;;;17.78;61.41;101365.66;5010704;28;19925;-76
2023/05/04 06:03:50;;;;;;;;;;;;;;;17.87;61.32;101368.28;5012728;28;19921;-76
2023/05/04 06:06:42;;;;;;;;;;;;;;;17.94;61.22;101377.53;5014985;28;19917;-76
2023/05/04 06:09:34;;;;;;;;;;;;;;;17.99;60.90;101367.44;5009596;28;20289;-76
2023/05/04 06:12:26;;;;;;;;;;;;;;;18.04;60.79;101367.19;5016896;28;19917;-78
2023/05/04 06:15:18;;;;;;;;;;;;;;;18.11;59.96;101367.41;5010915;28;19917;-76
2023/05/04 06:18:10;;;;;;;;;;;;;;;18.23;58.46;101367.38;5011773;28;20377;-76
2023/05/04 06:21:02;;;;;;;;;;;;;;;18.33;57.79;101362.16;5018137;28;19925;-76
2023/05/04 06:23:54;;;;;;;;;;;;;;;18.62;56.19;101369.25;5015450;28;19917;-76
2023/05/04 06:26:46;;;;;;;;;;;;;;;18.69;54.31;101368.66;5013873;28;19925;-75
2023/05/04 06:29:38;;;;;;;;;;;;;;;18.72;54.69;101368.72;5016718;28;19921;-75
2023/05/04 06:32:30;;;;;;;;;;;;;;;18.69;51.72;101365.88;5004768;28;19922;-75
2023/05/04 06:35:23;;;;;;;;;;;;;;;18.84;51.72;101369.81;5010753;28;19917;-76
2023/05/04 06:38:15;;;;;;;;;;;;;;;18.83;53.32;101365.44;5016790;28;19917;-76
2023/05/04 06:41:07;;;;;;;;;;;;;;;18.92;51.85;101369.63;5019924;28;19926;-76
2023/05/04 06:43:59;;;;;;;;;;;;;;;18.16;51.04;101362.44;5017845;28;19917;-75
2023/05/04 06:46:48;;;;;;;;;;;;;;;18.56;51.48;101367.09;5008895;28;19973;-75
2023/05/04 06:49:40;;;;;;;;;;;;;;;18.15;51.45;101369.09;5019415;28;19922;-75
2023/05/04 06:52:32;;;;;;;;;;;;;;;18.21;53.03;101375.16;5015959;28;19918;-75
2023/05/04 06:55:24;;;;;;;;;;;;;;;18.52;48.29;101366.97;5014896;28;19925;-75
2023/05/04 06:58:17;;;;;;;;;;;;;;;18.73;45.91;101375.84;5018719;28;19917;-75
2023/05/04 07:01:10;;;;;;;;;;;;;;;18.58;47.11;101375.81;5015539;28;19921;-75
2023/05/04 07:04:02;;;;;;;;;;;;;;;18.57;47.50;101375.03;5015221;28;20284;-75
2023/05/04 07:06:54;;;;;;;;;;;;;;;19.03;47.09;101387.25;5016036;28;19918;-76
2023/05/04 07:09:42;;;;;;;;;;;;;;;19.21;46.03;101390.41;5012730;28;19917;-76
2023/05/04 07:12:34;;;;;;;;;;;;;;;19.22;46.43;101383.75;5010478;28;19917;-76
2023/05/04 07:15:26;;;;;;;;;;;;;;;19.37;46.62;101388.44;5016815;28;19917;-75
2023/05/04 07:18:18;;;;;;;;;;;;;;;19.51;47.46;101379.72;5013002;28;19921;-75
2023/05/04 07:21:13;;;;;;;;;;;;;;;19.73;46.92;101383.78;5014973;28;20397;-75
2023/05/04 07:24:05;;;;;;;;;;;;;;;20.31;44.22;101382.69;5015576;28;19917;-75
2023/05/04 07:26:57;;;;;;;;;;;;;;;20.53;42.45;101380.31;5019469;28;19917;-75
2023/05/04 07:29:49;;;;;;;;;;;;;;;20.24;42.41;101371.44;4997625;28;19938;-75
2023/05/04 07:32:41;;;;;;;;;;;;;;;20.83;41.79;101378.47;4995233;28;19925;-75
2023/05/04 07:35:33;;;;;;;;;;;;;;;20.57;41.14;101381.19;5003317;28;19925;-76
2023/05/04 07:38:25;;;;;;;;;;;;;;;21.48;39.54;101372.88;5019010;28;19921;-78
2023/05/04 07:41:17;;;;;;;;;;;;;;;21.42;40.38;101369.63;5017902;28;20296;-78
2023/05/04 07:44:09;;;;;;;;;;;;;;;21.05;41.43;101377.69;5020354;28;19918;-78
2023/05/04 07:47:02;;;;;;;;;;;;;;;20.82;41.91;101363.09;5020642;28;19917;-78
2023/05/04 07:49:54;;;;;;;;;;;;;;;20.62;42.25;101370.59;5023881;28;20289;-78
2023/05/04 07:52:46;;;;;;;;;;;;;;;20.65;42.27;101371.84;5016240;28;19917;-78
2023/05/04 07:55:38;;;;;;;;;;;;;;;20.66;41.82;101373.47;5017328;28;19917;-78
2023/05/04 07:58:27;;;;;;;;;;;;;;;20.73;42.11;101365.28;5021194;28;19918;-78
2023/05/04 08:01:19;;;;;;;;;;;;;;;20.71;42.16;101362.91;5018986;28;20164;-78
2023/05/04 08:04:09;;;;;;;;;;;;;;;20.60;42.34;101364.66;5016327;28;19918;-78
2023/05/04 08:06:59;;;;;;;;;;;;;;;20.59;41.84;101365.03;5020204;28;19921;-78
2023/05/04 08:09:51;;;;;;;;;;;;;;;20.56;42.64;101363.00;5017546;28;19921;-78
2023/05/04 08:12:43;;;;;;;;;;;;;;;20.61;42.79;101368.22;5016390;28;20373;-78
2023/05/04 08:15:35;;;;;;;;;;;;;;;20.60;42.13;101367.44;5019065;28;20392;-78
2023/05/04 08:18:27;;;;;;;;;;;;;;;20.66;41.69;101365.97;5009798;28;20296;-78
2023/05/04 08:21:19;;;;;;;;;;;;;;;20.58;41.65;101377.25;5021778;28;19922;-78
2023/05/04 08:24:11;;;;;;;;;;;;;;;20.56;42.64;101374.88;5020969;28;19921;-78
2023/05/04 08:27:03;;;;;;;;;;;;;;;20.46;41.38;101381.78;5018389;28;19917;-78
2023/05/04 08:29:55;;;;;;;;;;;;;;;20.58;41.75;101380.00;5022103;28;19918;-78
2023/05/04 08:32:44;;;;;;;;;;;;;;;20.63;41.29;101377.75;5019019;28;19917;-78
2023/05/04 08:35:36;;;;;;;;;;;;;;;20.62;41.43;101384.44;5018497;28;19917;-78
2023/05/04 08:38:28;;;;;;;;;;;;;;;20.57;42.76;101386.72;5022467;28;20376;-79
2023/05/04 08:41:20;;;;;;;;;;;;;;;20.52;42.61;101387.78;5020881;28;20396;-79
2023/05/04 08:44:10;;;;;;;;;;;;;;;20.36;43.80;101384.34;5023446;28;19918;-79
2023/05/04 08:47:03;;;;;;;;;;;;;;;20.42;43.54;101383.66;5021870;28;20385;-78
2023/05/04 08:49:55;;;;;;;;;;;;;;;20.58;42.62;101388.28;5019828;28;20092;-79
2023/05/04 08:52:47;;;;;;;;;;;;;;;20.70;41.07;101390.91;5019706;28;19917;-79
2023/05/04 08:55:43;;;;;;;;;;;;;;;20.77;41.74;101383.53;5020992;28;19917;-78
2023/05/04 08:58:37;;;;;;;;;;;;;;;20.66;42.92;101390.84;5018800;28;19918;-79
2023/05/04 09:01:29;;;;;;;;;;;;;;;20.66;42.75;101384.50;5022105;28;19921;-78
2023/05/04 09:04:21;;;;;;;;;;;;;;;20.66;43.45;101387.28;5019408;28;19921;-79
2023/05/04 09:07:13;;;;;;;;;;;;;;;20.54;43.43;101387.44;5022791;28;19917;-79
2023/05/04 09:10:02;;;;;;;;;;;;;;;20.42;44.33;101377.34;5020940;28;19917;-78
2023/05/04 09:12:54;;;;;;;;;;;;;;;20.46;43.47;101384.56;5018284;28;20312;-78
2023/05/04 09:15:54;;;;;;;;;;;;;;;20.78;43.48;101381.56;5022289;28;19917;-78
2023/05/04 09:18:46;;;;;;;;;;;;;;;20.88;42.67;101376.22;5020436;28;19917;-79
2023/05/04 09:21:36;;;;;;;;;;;;;;;20.82;42.35;101379.69;5022966;28;20384;-79
2023/05/04 09:24:30;;;;;;;;;;;;;;;20.97;42.94;101375.97;5024967;28;19917;-79
2023/05/04 09:27:22;;;;;;;;;;;;;;;21.13;41.33;101378.63;5023020;28;19917;-78
2023/05/04 09:30:14;;;;;;;;;;;;;;;21.20;41.08;101374.00;5026586;28;19917;-78
2023/05/04 09:33:05;;;;;;;;;;;;;;;21.17;41.46;101373.97;5020682;28;19917;-78
2023/05/04 09:35:58;;;;;;;;;;;;;;;21.22;40.56;101366.16;5020710;28;19917;-78
2023/05/04 09:38:49;;;;;;;;;;;;;;;21.15;40.62;101371.56;5025513;28;19917;-79
2023/05/04 09:41:41;;;;;;;;;;;;;;;20.78;42.83;101378.78;5022144;28;19925;-79
2023/05/04 09:44:33;;;;;;;;;;;;;;;20.90;41.62;101375.84;5017214;28;19921;-78
2023/05/04 09:47:29;;;;;;;;;;;;;;;21.16;41.90;101377.91;5016855;28;19918;-78
2023/05/04 09:50:21;;;;;;;;;;;;;;;21.33;41.42;101375.41;5014723;28;19922;-78
2023/05/04 09:53:14;;;;;;;;;;;;;;;21.50;40.83;101370.50;5024967;28;19917;-79
2023/05/04 09:56:13;;;;;;;;;;;;;;;21.46;41.18;101369.66;5020510;28;19917;-78
2023/05/04 09:59:05;;;;;;;;;;;;;;;21.59;39.82;101368.25;5026171;28;19921;-78
2023/05/04 10:01:57;;;;;;;;;;;;;;;21.59;40.12;101366.28;5022635;28;19921;-78
2023/05/04 10:04:48;;;;;;;;;;;;;;;21.59;39.04;101366.28;5019551;28;19918;-78
2023/05/04 10:07:35;;;;;;;;;;;;;;;21.71;39.46;101365.28;5018906;28;19917;-78
2023/05/04 10:10:27;;;;;;;;;;;;;;;21.75;39.61;101360.56;5015245;28;19921;-78
2023/05/04 10:13:16;;;;;;;;;;;;;;;21.70;39.64;101360.91;5020528;28;19918;-78
2023/05/04 10:16:25;;;;;;;;;;;;;;;21.73;40.17;101357.41;5022019;28;19917;-78
2023/05/04 10:19:33;;;;;;;;;;;;;;;21.87;38.50;101354.00;5006566;28;19917;-78
2023/05/04 10:22:41;;;;;;;;;;;;;;;21.83;39.71;101342.91;5016507;28;19943;-79
2023/05/04 10:25:42;;;;;;;;;;;;;;;21.65;40.21;101336.31;5018073;28;19917;-78
2023/05/04 10:28:38;;;;;;;;;;;;;;;21.76;39.50;101340.81;5018741;28;19918;-78
2023/05/04 10:31:37;;;;;;;;;;;;;;;21.73;40.16;101340.78;5020247;28;19917;-78
2023/05/04 10:34:34;;;;;;;;;;;;;;;22.08;39.06;101330.19;5025066;28;20420;-78
2023/05/04 10:37:26;;;;;;;;;;;;;;;22.19;38.56;101327.53;5015639;28;19921;-78
2023/05/04 10:40:18;;;;;;;;;;;;;;;21.84;39.79;101338.16;5011721;28;20188;-78
2023/05/04 10:43:09;;;;;;;;;;;;;;;22.03;39.25;101330.50;5020972;28;19921;-79
2023/05/04 10:46:01;;;;;;;;;;;;;;;22.05;39.64;101325.38;5021215;28;19925;-78
2023/05/04 10:48:51;;;;;;;;;;;;;;;22.04;39.85;101318.25;5000695;28;20038;-78
2023/05/04 10:51:43;;;;;;;;;;;;;;;21.96;39.21;101316.56;5003019;28;19918;-78
2023/05/04 10:54:34;;;;;;;;;;;;;;;22.26;39.66;101310.16;5004718;28;19918;-78
2023/05/04 10:57:26;;;;;;;;;;;;;;;22.38;39.27;101287.72;5012560;28;19917;-78
2023/05/04 11:00:18;;;;;;;;;;;;;;;22.55;37.80;101304.50;5019815;28;19921;-78
2023/05/04 11:03:10;;;;;;;;;;;;;;;22.59;37.09;101305.38;5019477;28;20393;-78
2023/05/04 11:06:02;;;;;;;;;;;;;;;22.71;37.94;101307.06;5023124;28;20300;-78
2023/05/04 11:09:03;;;;;;;;;;;;;;;22.82;37.39;101304.38;5021843;28;19918;-78
2023/05/04 11:11:56;;;;;;;;;;;;;;;22.79;37.20;101303.19;5019848;28;19921;-78
2023/05/04 11:14:48;;;;;;;;;;;;;;;22.57;37.53;101295.81;5021882;28;20384;-78
2023/05/04 11:18:06;;;;;;;;;;;;;;;22.66;37.54;101301.84;5020134;28;19918;-78
2023/05/04 11:20:58;;;;;;;;;;;;;;;22.56;38.36;101299.78;5017771;28;20385;-79
2023/05/04 11:23:54;;;;;;;;;;;;;;;22.62;37.66;101298.25;5020293;28;20308;-78
2023/05/04 11:26:48;;;;;;;;;;;;;;;22.86;37.65;101305.19;5023019;28;19921;-78
2023/05/04 11:29:39;;;;;;;;;;;;;;;22.89;36.98;101302.47;5002181;28;19918;-78
2023/05/04 11:32:36;;;;;;;;;;;;;;;22.87;37.43;101302.06;4999658;28;19921;-80
2023/05/04 11:35:28;;;;;;;;;;;;;;;22.81;37.83;101295.25;5003470;28;20377;-78
2023/05/04 11:38:23;;;;;;;;;;;;;;;23.01;36.88;101291.06;5001142;28;19918;-78
2023/05/04 11:41:15;;;;;;;;;;;;;;;23.07;37.14;101285.16;5023524;28;20417;-78
2023/05/04 11:44:08;;;;;;;;;;;;;;;23.08;37.19;101289.50;5019810;28;19921;-79
2023/05/04 11:47:01;;;;;;;;;;;;;;;23.24;36.81;101292.78;5019704;28;19917;-79
2023/05/04 11:49:52;;;;;;;;;;;;;;;23.17;36.68;101276.88;5023161;28;19917;-79
2023/05/04 11:52:44;;;;;;;;;;;;;;;23.23;36.79;101278.13;5019814;28;19917;-79
2023/05/04 11:55:36;;;;;;;;;;;;;;;23.20;36.67;101275.34;5019140;28;19917;-78
2023/05/04 11:58:28;;;;;;;;;;;;;;;23.20;37.18;101272.56;5023112;28;19918;-79
2023/05/04 12:01:18;;;;;;;;;;;;;;;22.76;37.73;101270.66;5020890;28;19917;-79
2023/05/04 12:04:10;;;;;;;;;;;;;;;22.66;37.70;101271.34;5023676;28;20397;-78
2023/05/04 12:07:07;;;;;;;;;;;;;;;22.80;38.30;101273.47;5016958;28;19917;-79
2023/05/04 12:09:56;;;;;;;;;;;;;;;23.02;38.46;101273.22;5014601;28;19917;-79
2023/05/04 12:12:46;;;;;;;;;;;;;;;23.08;36.91;101262.56;5010798;28;19918;-78
2023/05/04 12:15:38;;;;;;;;;;;;;;;22.93;37.74;101264.47;5016185;28;19917;-79
2023/05/04 12:18:30;;;;;;;;;;;;;;;22.77;38.14;101266.72;5016512;28;19917;-78
2023/05/04 12:21:22;;;;;;;;;;;;;;;22.86;37.71;101263.59;5014789;28;19922;-79
2023/05/04 12:24:13;;;;;;;;;;;;;;;23.10;38.03;101262.19;5020175;28;19921;-78
2023/05/04 12:27:03;;;;;;;;;;;;;;;23.11;38.12;101261.00;5024848;28;20373;-79
2023/05/04 12:29:56;;;;;;;;;;;;;;;23.03;38.08;101260.16;5016174;28;20263;-78
2023/05/04 12:32:45;;;;;;;;;;;;;;;23.01;37.67;101255.00;5021626;28;20141;-79
2023/05/04 12:35:37;;;;;;;;;;;;;;;22.82;38.20;101248.91;5017700;28;20389;-79
2023/05/04 12:38:29;;;;;;;;;;;;;;;22.90;38.32;101251.38;5022591;28;19917;-79
2023/05/04 12:41:21;;;;;;;;;;;;;;;22.51;39.00;101250.22;5020364;28;19917;-79
2023/05/04 12:44:13;;;;;;;;;;;;;;;22.49;39.09;101256.16;5023595;28;19921;-79
2023/05/04 12:47:04;;;;;;;;;;;;;;;22.43;38.39;101245.81;5013196;28;19918;-79
2023/05/04 12:49:56;;;;;;;;;;;;;;;22.46;38.95;101240.28;5019584;28;19917;-79
2023/05/04 12:52:48;;;;;;;;;;;;;;;22.58;39.12;101241.97;5018446;28;20385;-79
2023/05/04 12:55:37;;;;;;;;;;;;;;;22.61;39.18;101241.19;5021705;28;19918;-79
2023/05/04 12:58:29;;;;;;;;;;;;;;;22.90;38.52;101237.50;5028580;28;19917;-79
2023/05/04 13:01:21;;;;;;;;;;;;;;;23.02;38.21;101242.72;5026130;28;19921;-79
2023/05/04 13:04:11;;;;;;;;;;;;;;;23.00;37.47;101236.78;5022603;28;19922;-79
2023/05/04 13:07:03;;;;;;;;;;;;;;;22.83;37.92;101226.34;5027599;28;19917;-78
2023/05/04 13:09:55;;;;;;;;;;;;;;;22.91;38.24;101227.19;5013029;28;19917;-78
2023/05/04 13:12:47;;;;;;;;;;;;;;;22.91;37.42;101219.66;5022186;28;19918;-78
2023/05/04 13:15:39;;;;;;;;;;;;;;;23.00;37.42;101209.03;5022926;28;20309;-79
2023/05/04 13:18:32;;;;;;;;;;;;;;;23.12;37.36;101205.13;5014389;28;19950;-78
2023/05/04 13:21:23;;;;;;;;;;;;;;;23.17;37.64;101207.50;5014727;28;19921;-78
2023/05/04 13:24:16;;;;;;;;;;;;;;;22.79;38.41;101200.56;5015210;28;19922;-78
2023/05/04 13:27:08;;;;;;;;;;;;;;;22.47;39.32;101199.50;5010460;28;19918;-78
2023/05/04 13:30:00;;;;;;;;;;;;;;;22.36;39.98;101195.84;5017826;28;20407;-79
2023/05/04 13:32:52;;;;;;;;;;;;;;;22.66;38.43;101192.91;5021214;28;20296;-78
2023/05/04 13:35:44;;;;;;;;;;;;;;;22.80;38.26;101193.06;5019647;28;19918;-78
2023/05/04 13:38:33;;;;;;;;;;;;;;;23.07;38.18;101180.50;5023172;28;19917;-78
2023/05/04 13:41:23;;;;;;;;;;;;;;;23.20;38.66;101183.75;5019533;28;19960;-78
2023/05/04 13:44:12;;;;;;;;;;;;;;;23.11;38.46;101180.56;5024552;28;19922;-79
2023/05/04 13:47:04;;;;;;;;;;;;;;;22.65;39.33;101181.03;5022736;28;19917;-78
2023/05/04 13:49:56;;;;;;;;;;;;;;;22.82;39.17;101174.84;5021166;28;19918;-78
2023/05/04 13:52:48;;;;;;;;;;;;;;;22.38;40.08;101176.88;5014331;28;20332;-79
2023/05/04 13:55:40;;;;;;;;;;;;;;;22.60;39.57;101175.88;5014030;28;19918;-79
2023/05/04 13:58:33;;;;;;;;;;;;;;;22.71;39.05;101168.41;5010268;28;19941;-79
2023/05/04 14:01:25;;;;;;;;;;;;;;;22.62;39.78;101165.16;5015930;28;19925;-79
2023/05/04 14:04:17;;;;;;;;;;;;;;;22.68;39.18;101163.63;5012020;28;19922;-78
2023/05/04 14:07:09;;;;;;;;;;;;;;;22.39;40.01;101150.75;5016499;28;19918;-79
2023/05/04 14:10:01;;;;;;;;;;;;;;;22.43;40.18;101165.44;5004500;28;20413;-79
2023/05/04 14:12:53;;;;;;;;;;;;;;;22.52;40.71;101165.88;5002030;28;19917;-79
2023/05/04 14:15:42;;;;;;;;;;;;;;;22.71;40.47;101160.09;5006607;28;19917;-79
2023/05/04 14:18:31;;;;;;;;;;;;;;;22.74;39.84;101153.00;5007795;28;19918;-79
2023/05/04 14:21:23;;;;;;;;;;;;;;;22.62;39.24;101154.06;5013505;28;19918;-79
2023/05/04 14:24:15;;;;;;;;;;;;;;;22.72;39.83;101153.38;5024138;28;19921;-79
2023/05/04 14:27:07;;;;;;;;;;;;;;;22.74;39.27;101150.22;5022932;28;19918;-79
2023/05/04 14:29:56;;;;;;;;;;;;;;;22.56;39.74;101150.88;5025979;28;19917;-79
2023/05/04 14:32:48;;;;;;;;;;;;;;;22.35;40.66;101147.94;5019845;28;19918;-79
2023/05/04 14:35:42;;;;;;;;;;;;;;;22.07;41.75;101136.63;5014742;28;19929;-78
2023/05/04 14:38:33;;;;;;;;;;;;;;;22.12;41.70;101141.84;5012324;28;19918;-78
2023/05/04 14:41:25;;;;;;;;;;;;;;;22.32;40.39;101134.88;5010371;28;19917;-78
2023/05/04 14:44:17;;;;;;;;;;;;;;;22.49;39.60;101133.41;5019867;28;19921;-78